sensor_id;sensor_type;location;lat;lon;timestamp;P1;durP1;ratioP1;P2;durP2;ratioP2
73571;SDS011;61854;48.510;-2.770;2023-10-13T00:00:28;15.02;;;4.70;;
73571;SDS011;61854;48.510;-2.770;2023-10-13T00:03:05;17.17;;;4.88;;
73571;SDS011;61854;48.510;-2.770;2023-10-13T00:05:32;15.90;;;4.35;;
73571;SDS011;61854;48.510;-2.770;2023-10-13T00:07:59;15.10;;;4.00;;
73571;SDS011;61854;48.510;-2.770;2023-10-13T00:10:31;11.32;;;3.53;;
73571;SDS011;61854;48.510;-2.770;2023-10-13T00:12:58;11.13;;;4.20;;
73571;SDS011;61854;48.510;-2.770;2023-10-13T00:15:46;14.88;;;4.43;;
73571;SDS011;61854;48.510;-2.770;2023-10-13T00:20:52;20.23;;;5.72;;
73571;SDS011;61854;48.510;-2.770;2023-10-13T00:23:21;17.45;;;4.90;;
73571;SDS011;61854;48.510;-2.770;2023-10-13T00:25:48;18.80;;;4.65;;
73571;SDS011;61854;48.510;-2.770;2023-10-13T00:28:27;15.50;;;4.13;;
73571;SDS011;61854;48.510;-2.770;2023-10-13T00:31:01;17.02;;;4.97;;
73571;SDS011;61854;48.510;-2.770;2023-10-13T00:33:36;14.45;;;4.10;;
73571;SDS011;61854;48.510;-2.770;2023-10-13T00:36:03;14.77;;;4.67;;
73571;SDS011;61854;48.510;-2.770;2023-10-13T00:38:30;15.48;;;4.72;;
73571;SDS011;61854;48.510;-2.770;2023-10-13T00:40:56;14.75;;;3.42;;
73571;SDS011;61854;48.510;-2.770;2023-10-13T00:43:28;12.45;;;3.65;;
73571;SDS011;61854;48.510;-2.770;2023-10-13T00:45:57;15.68;;;4.07;;
73571;SDS011;61854;48.510;-2.770;2023-10-13T00:48:29;17.05;;;4.70;;
73571;SDS011;61854;48.510;-2.770;2023-10-13T00:51:05;13.80;;;3.92;;
73571;SDS011;61854;48.510;-2.770;2023-10-13T00:53:35;17.52;;;4.15;;
73571;SDS011;61854;48.510;-2.770;2023-10-13T00:56:09;16.40;;;4.13;;
73571;SDS011;61854;48.510;-2.770;2023-10-13T00:58:46;11.85;;;3.63;;
73571;SDS011;61854;48.510;-2.770;2023-10-13T01:01:12;12.93;;;4.63;;
73571;SDS011;61854;48.510;-2.770;2023-10-13T01:03:50;22.42;;;4.80;;
73571;SDS011;61854;48.510;-2.770;2023-10-13T01:06:20;15.55;;;4.03;;
73571;SDS011;61854;48.510;-2.770;2023-10-13T01:08:57;11.45;;;4.25;;
73571;SDS011;61854;48.510;-2.770;2023-10-13T01:11:42;15.85;;;4.90;;
73571;SDS011;61854;48.510;-2.770;2023-10-13T01:14:16;13.02;;;4.40;;
73571;SDS011;61854;48.510;-2.770;2023-10-13T01:16:42;17.67;;;4.80;;
73571;SDS011;61854;48.510;-2.770;2023-10-13T01:19:15;13.77;;;4.72;;
73571;SDS011;61854;48.510;-2.770;2023-10-13T01:22:03;13.73;;;4.05;;
73571;SDS011;61854;48.510;-2.770;2023-10-13T01:24:31;14.93;;;4.95;;
73571;SDS011;61854;48.510;-2.770;2023-10-13T01:26:59;14.48;;;4.50;;
73571;SDS011;61854;48.510;-2.770;2023-10-13T01:29:45;14.60;;;4.28;;
73571;SDS011;61854;48.510;-2.770;2023-10-13T01:32:18;15.35;;;4.82;;
73571;SDS011;61854;48.510;-2.770;2023-10-13T01:34:44;13.70;;;4.43;;
73571;SDS011;61854;48.510;-2.770;2023-10-13T01:37:11;19.02;;;5.13;;
73571;SDS011;61854;48.510;-2.770;2023-10-13T01:39:36;16.70;;;4.97;;
73571;SDS011;61854;48.510;-2.770;2023-10-13T01:42:02;17.40;;;4.57;;
73571;SDS011;61854;48.510;-2.770;2023-10-13T01:44:28;18.10;;;4.65;;
73571;SDS011;61854;48.510;-2.770;2023-10-13T01:47:04;14.43;;;4.35;;
73571;SDS011;61854;48.510;-2.770;2023-10-13T01:49:34;21.52;;;5.53;;
73571;SDS011;61854;48.510;-2.770;2023-10-13T01:52:20;19.23;;;5.00;;
73571;SDS011;61854;48.510;-2.770;2023-10-13T01:54:47;22.77;;;4.88;;
73571;SDS011;61854;48.510;-2.770;2023-10-13T01:57:15;15.18;;;4.75;;
73571;SDS011;61854;48.510;-2.770;2023-10-13T01:59:44;15.57;;;4.50;;
73571;SDS011;61854;48.510;-2.770;2023-10-13T02:02:10;12.13;;;4.50;;
73571;SDS011;61854;48.510;-2.770;2023-10-13T02:04:40;13.88;;;3.65;;
73571;SDS011;61854;48.510;-2.770;2023-10-13T02:07:20;18.77;;;4.78;;
73571;SDS011;61854;48.510;-2.770;2023-10-13T02:09:51;16.33;;;4.63;;
73571;SDS011;61854;48.510;-2.770;2023-10-13T02:12:19;15.05;;;4.35;;
73571;SDS011;61854;48.510;-2.770;2023-10-13T02:14:51;17.90;;;4.95;;
73571;SDS011;61854;48.510;-2.770;2023-10-13T02:17:16;12.93;;;4.63;;
73571;SDS011;61854;48.510;-2.770;2023-10-13T02:19:46;17.35;;;5.00;;
73571;SDS011;61854;48.510;-2.770;2023-10-13T02:22:12;13.30;;;4.85;;
73571;SDS011;61854;48.510;-2.770;2023-10-13T02:24:51;16.80;;;5.07;;
73571;SDS011;61854;48.510;-2.770;2023-10-13T02:27:17;20.00;;;5.25;;
73571;SDS011;61854;48.510;-2.770;2023-10-13T02:29:49;18.60;;;4.90;;
73571;SDS011;61854;48.510;-2.770;2023-10-13T02:32:14;15.50;;;4.55;;
73571;SDS011;61854;48.510;-2.770;2023-10-13T02:34:46;13.48;;;4.18;;
73571;SDS011;61854;48.510;-2.770;2023-10-13T02:37:13;10.95;;;3.72;;
73571;SDS011;61854;48.510;-2.770;2023-10-13T02:39:41;13.82;;;4.00;;
73571;SDS011;61854;48.510;-2.770;2023-10-13T02:42:07;20.80;;;5.22;;
73571;SDS011;61854;48.510;-2.770;2023-10-13T02:44:34;15.85;;;4.70;;
73571;SDS011;61854;48.510;-2.770;2023-10-13T02:47:01;15.15;;;5.03;;
73571;SDS011;61854;48.510;-2.770;2023-10-13T02:49:38;18.93;;;5.73;;
73571;SDS011;61854;48.510;-2.770;2023-10-13T02:52:08;18.35;;;4.90;;
73571;SDS011;61854;48.510;-2.770;2023-10-13T02:54:34;19.98;;;5.63;;
73571;SDS011;61854;48.510;-2.770;2023-10-13T02:57:08;12.57;;;4.38;;
73571;SDS011;61854;48.510;-2.770;2023-10-13T02:59:33;19.30;;;5.20;;
73571;SDS011;61854;48.510;-2.770;2023-10-13T03:02:02;16.00;;;5.60;;
73571;SDS011;61854;48.510;-2.770;2023-10-13T03:04:52;14.63;;;5.40;;
73571;SDS011;61854;48.510;-2.770;2023-10-13T03:07:24;13.55;;;4.28;;
73571;SDS011;61854;48.510;-2.770;2023-10-13T03:09:54;19.48;;;5.63;;
73571;SDS011;61854;48.510;-2.770;2023-10-13T03:12:23;21.05;;;5.68;;
73571;SDS011;61854;48.510;-2.770;2023-10-13T03:14:58;21.55;;;5.90;;
73571;SDS011;61854;48.510;-2.770;2023-10-13T03:17:38;20.55;;;5.00;;
73571;SDS011;61854;48.510;-2.770;2023-10-13T03:20:08;22.38;;;5.25;;
73571;SDS011;61854;48.510;-2.770;2023-10-13T03:22:39;14.57;;;4.82;;
73571;SDS011;61854;48.510;-2.770;2023-10-13T03:25:05;18.40;;;5.47;;
73571;SDS011;61854;48.510;-2.770;2023-10-13T03:30:17;21.63;;;5.95;;
73571;SDS011;61854;48.510;-2.770;2023-10-13T03:32:43;17.70;;;5.78;;
73571;SDS011;61854;48.510;-2.770;2023-10-13T03:35:11;21.60;;;5.85;;
73571;SDS011;61854;48.510;-2.770;2023-10-13T03:37:50;21.15;;;6.25;;
73571;SDS011;61854;48.510;-2.770;2023-10-13T03:40:16;19.05;;;6.30;;
73571;SDS011;61854;48.510;-2.770;2023-10-13T03:42:45;22.58;;;5.88;;
73571;SDS011;61854;48.510;-2.770;2023-10-13T03:45:35;18.55;;;5.32;;
73571;SDS011;61854;48.510;-2.770;2023-10-13T03:48:03;17.48;;;5.85;;
73571;SDS011;61854;48.510;-2.770;2023-10-13T03:50:34;18.08;;;5.70;;
73571;SDS011;61854;48.510;-2.770;2023-10-13T03:53:11;17.17;;;5.35;;
73571;SDS011;61854;48.510;-2.770;2023-10-13T03:55:38;19.30;;;5.25;;
73571;SDS011;61854;48.510;-2.770;2023-10-13T03:58:03;14.80;;;4.32;;
73571;SDS011;61854;48.510;-2.770;2023-10-13T04:00:29;21.42;;;5.55;;
73571;SDS011;61854;48.510;-2.770;2023-10-13T04:02:56;16.73;;;5.28;;
73571;SDS011;61854;48.510;-2.770;2023-10-13T04:05:29;16.88;;;6.05;;
73571;SDS011;61854;48.510;-2.770;2023-10-13T04:08:04;20.52;;;5.82;;
73571;SDS011;61854;48.510;-2.770;2023-10-13T04:10:49;17.70;;;6.28;;
73571;SDS011;61854;48.510;-2.770;2023-10-13T04:13:18;17.23;;;4.45;;
73571;SDS011;61854;48.510;-2.770;2023-10-13T04:16:03;16.88;;;5.53;;
73571;SDS011;61854;48.510;-2.770;2023-10-13T04:18:48;25.70;;;5.60;;
73571;SDS011;61854;48.510;-2.770;2023-10-13T04:21:34;26.55;;;5.25;;
73571;SDS011;61854;48.510;-2.770;2023-10-13T04:24:06;15.73;;;5.78;;
73571;SDS011;61854;48.510;-2.770;2023-10-13T04:26:42;22.38;;;5.55;;
73571;SDS011;61854;48.510;-2.770;2023-10-13T04:29:26;24.42;;;5.53;;
73571;SDS011;61854;48.510;-2.770;2023-10-13T04:32:11;23.00;;;5.57;;
73571;SDS011;61854;48.510;-2.770;2023-10-13T04:34:40;23.20;;;6.57;;
73571;SDS011;61854;48.510;-2.770;2023-10-13T04:37:14;20.05;;;6.10;;
73571;SDS011;61854;48.510;-2.770;2023-10-13T04:39:55;15.65;;;5.18;;
73571;SDS011;61854;48.510;-2.770;2023-10-13T04:42:36;20.40;;;6.80;;
73571;SDS011;61854;48.510;-2.770;2023-10-13T04:45:16;20.13;;;6.43;;
73571;SDS011;61854;48.510;-2.770;2023-10-13T04:47:58;16.90;;;5.38;;
73571;SDS011;61854;48.510;-2.770;2023-10-13T04:50:52;23.67;;;6.63;;
73571;SDS011;61854;48.510;-2.770;2023-10-13T04:53:43;18.15;;;5.43;;
73571;SDS011;61854;48.510;-2.770;2023-10-13T04:56:27;16.23;;;5.43;;
73571;SDS011;61854;48.510;-2.770;2023-10-13T04:59:11;25.38;;;6.55;;
73571;SDS011;61854;48.510;-2.770;2023-10-13T05:01:42;22.27;;;6.40;;
73571;SDS011;61854;48.510;-2.770;2023-10-13T05:04:15;19.67;;;6.15;;
73571;SDS011;61854;48.510;-2.770;2023-10-13T05:06:55;17.90;;;5.72;;
73571;SDS011;61854;48.510;-2.770;2023-10-13T05:09:39;19.88;;;6.15;;
73571;SDS011;61854;48.510;-2.770;2023-10-13T05:12:23;23.38;;;5.55;;
73571;SDS011;61854;48.510;-2.770;2023-10-13T05:15:07;25.58;;;5.93;;
73571;SDS011;61854;48.510;-2.770;2023-10-13T05:17:52;18.17;;;5.75;;
73571;SDS011;61854;48.510;-2.770;2023-10-13T05:20:36;16.23;;;5.28;;
73571;SDS011;61854;48.510;-2.770;2023-10-13T05:23:20;20.58;;;6.28;;
73571;SDS011;61854;48.510;-2.770;2023-10-13T05:26:04;16.65;;;4.72;;
73571;SDS011;61854;48.510;-2.770;2023-10-13T05:28:48;29.63;;;6.38;;
73571;SDS011;61854;48.510;-2.770;2023-10-13T05:31:32;28.13;;;6.20;;
73571;SDS011;61854;48.510;-2.770;2023-10-13T05:34:16;19.52;;;5.57;;
73571;SDS011;61854;48.510;-2.770;2023-10-13T05:37:00;23.83;;;5.80;;
73571;SDS011;61854;48.510;-2.770;2023-10-13T05:39:44;20.70;;;5.90;;
73571;SDS011;61854;48.510;-2.770;2023-10-13T05:42:28;20.38;;;4.88;;
73571;SDS011;61854;48.510;-2.770;2023-10-13T05:45:12;23.73;;;5.75;;
73571;SDS011;61854;48.510;-2.770;2023-10-13T05:47:41;19.77;;;5.55;;
73571;SDS011;61854;48.510;-2.770;2023-10-13T05:50:15;20.17;;;5.43;;
73571;SDS011;61854;48.510;-2.770;2023-10-13T05:52:47;16.58;;;4.72;;
73571;SDS011;61854;48.510;-2.770;2023-10-13T05:55:21;20.95;;;6.10;;
73571;SDS011;61854;48.510;-2.770;2023-10-13T05:58:09;16.00;;;5.47;;
73571;SDS011;61854;48.510;-2.770;2023-10-13T06:00:54;20.27;;;5.10;;
73571;SDS011;61854;48.510;-2.770;2023-10-13T06:03:39;18.35;;;4.60;;
73571;SDS011;61854;48.510;-2.770;2023-10-13T06:06:23;20.65;;;5.20;;
73571;SDS011;61854;48.510;-2.770;2023-10-13T06:09:07;15.10;;;5.25;;
73571;SDS011;61854;48.510;-2.770;2023-10-13T06:11:51;14.23;;;4.65;;
73571;SDS011;61854;48.510;-2.770;2023-10-13T06:14:35;17.23;;;5.13;;
73571;SDS011;61854;48.510;-2.770;2023-10-13T06:17:20;19.48;;;5.20;;
73571;SDS011;61854;48.510;-2.770;2023-10-13T06:20:04;12.18;;;3.97;;
73571;SDS011;61854;48.510;-2.770;2023-10-13T06:22:49;11.32;;;4.15;;
73571;SDS011;61854;48.510;-2.770;2023-10-13T06:25:33;13.15;;;4.70;;
73571;SDS011;61854;48.510;-2.770;2023-10-13T06:28:18;13.77;;;4.03;;
73571;SDS011;61854;48.510;-2.770;2023-10-13T06:31:03;11.73;;;4.07;;
73571;SDS011;61854;48.510;-2.770;2023-10-13T06:33:32;14.52;;;4.65;;
73571;SDS011;61854;48.510;-2.770;2023-10-13T06:36:05;19.17;;;5.20;;
73571;SDS011;61854;48.510;-2.770;2023-10-13T06:38:34;13.98;;;4.65;;
73571;SDS011;61854;48.510;-2.770;2023-10-13T06:41:04;14.88;;;4.50;;
73571;SDS011;61854;48.510;-2.770;2023-10-13T06:43:33;15.32;;;4.60;;
73571;SDS011;61854;48.510;-2.770;2023-10-13T06:46:08;17.55;;;5.22;;
73571;SDS011;61854;48.510;-2.770;2023-10-13T06:48:48;13.80;;;5.20;;
73571;SDS011;61854;48.510;-2.770;2023-10-13T06:51:18;22.08;;;5.18;;
73571;SDS011;61854;48.510;-2.770;2023-10-13T06:53:48;14.77;;;4.85;;
73571;SDS011;61854;48.510;-2.770;2023-10-13T06:56:14;15.23;;;4.60;;
73571;SDS011;61854;48.510;-2.770;2023-10-13T06:58:53;16.08;;;4.90;;
73571;SDS011;61854;48.510;-2.770;2023-10-13T07:01:29;20.92;;;5.57;;
73571;SDS011;61854;48.510;-2.770;2023-10-13T07:03:55;16.65;;;6.03;;
73571;SDS011;61854;48.510;-2.770;2023-10-13T07:06:26;18.77;;;5.35;;
73571;SDS011;61854;48.510;-2.770;2023-10-13T07:08:52;18.92;;;6.18;;
73571;SDS011;61854;48.510;-2.770;2023-10-13T07:11:18;21.10;;;5.93;;
73571;SDS011;61854;48.510;-2.770;2023-10-13T07:13:58;18.33;;;5.50;;
73571;SDS011;61854;48.510;-2.770;2023-10-13T07:16:54;22.48;;;6.07;;
73571;SDS011;61854;48.510;-2.770;2023-10-13T07:19:25;17.88;;;5.97;;
73571;SDS011;61854;48.510;-2.770;2023-10-13T07:21:57;18.92;;;5.75;;
73571;SDS011;61854;48.510;-2.770;2023-10-13T07:24:27;20.00;;;6.00;;
73571;SDS011;61854;48.510;-2.770;2023-10-13T07:26:57;21.13;;;5.60;;
73571;SDS011;61854;48.510;-2.770;2023-10-13T07:29:32;22.00;;;5.30;;
73571;SDS011;61854;48.510;-2.770;2023-10-13T07:32:01;18.42;;;5.55;;
73571;SDS011;61854;48.510;-2.770;2023-10-13T07:34:30;22.95;;;5.63;;
73571;SDS011;61854;48.510;-2.770;2023-10-13T07:37:00;18.95;;;5.35;;
73571;SDS011;61854;48.510;-2.770;2023-10-13T07:39:29;23.80;;;6.20;;
73571;SDS011;61854;48.510;-2.770;2023-10-13T07:41:59;19.73;;;5.18;;
73571;SDS011;61854;48.510;-2.770;2023-10-13T07:44:40;16.48;;;4.65;;
73571;SDS011;61854;48.510;-2.770;2023-10-13T07:47:11;20.70;;;5.75;;
73571;SDS011;61854;48.510;-2.770;2023-10-13T07:49:39;17.48;;;5.15;;
73571;SDS011;61854;48.510;-2.770;2023-10-13T07:52:06;21.50;;;6.22;;
73571;SDS011;61854;48.510;-2.770;2023-10-13T07:54:45;24.92;;;5.70;;
73571;SDS011;61854;48.510;-2.770;2023-10-13T07:57:15;19.67;;;5.57;;
73571;SDS011;61854;48.510;-2.770;2023-10-13T07:59:42;19.88;;;5.15;;
73571;SDS011;61854;48.510;-2.770;2023-10-13T08:02:17;18.83;;;5.53;;
73571;SDS011;61854;48.510;-2.770;2023-10-13T08:05:02;20.85;;;6.10;;
73571;SDS011;61854;48.510;-2.770;2023-10-13T08:07:34;18.00;;;5.40;;
73571;SDS011;61854;48.510;-2.770;2023-10-13T08:10:04;18.83;;;4.93;;
73571;SDS011;61854;48.510;-2.770;2023-10-13T08:12:34;19.63;;;5.25;;
73571;SDS011;61854;48.510;-2.770;2023-10-13T08:15:02;20.65;;;5.28;;
73571;SDS011;61854;48.510;-2.770;2023-10-13T08:17:39;15.53;;;4.57;;
73571;SDS011;61854;48.510;-2.770;2023-10-13T08:20:09;18.02;;;5.38;;
73571;SDS011;61854;48.510;-2.770;2023-10-13T08:22:37;15.20;;;4.45;;
73571;SDS011;61854;48.510;-2.770;2023-10-13T08:25:03;15.88;;;4.75;;
73571;SDS011;61854;48.510;-2.770;2023-10-13T08:27:48;20.23;;;5.28;;
73571;SDS011;61854;48.510;-2.770;2023-10-13T08:30:33;18.38;;;5.10;;
73571;SDS011;61854;48.510;-2.770;2023-10-13T08:33:07;19.08;;;5.47;;
73571;SDS011;61854;48.510;-2.770;2023-10-13T08:35:43;21.50;;;5.43;;
73571;SDS011;61854;48.510;-2.770;2023-10-13T08:38:40;20.70;;;4.95;;
73571;SDS011;61854;48.510;-2.770;2023-10-13T08:41:16;20.77;;;5.10;;
73571;SDS011;61854;48.510;-2.770;2023-10-13T08:43:44;13.82;;;4.32;;
73571;SDS011;61854;48.510;-2.770;2023-10-13T08:46:15;15.65;;;4.45;;
73571;SDS011;61854;48.510;-2.770;2023-10-13T08:48:55;12.87;;;3.67;;
73571;SDS011;61854;48.510;-2.770;2023-10-13T08:51:35;18.65;;;4.93;;
73571;SDS011;61854;48.510;-2.770;2023-10-13T08:54:14;18.45;;;4.57;;
73571;SDS011;61854;48.510;-2.770;2023-10-13T08:57:00;18.63;;;4.40;;
73571;SDS011;61854;48.510;-2.770;2023-10-13T08:59:45;15.18;;;4.15;;
73571;SDS011;61854;48.510;-2.770;2023-10-13T09:02:20;16.08;;;3.78;;
73571;SDS011;61854;48.510;-2.770;2023-10-13T09:05:24;13.90;;;3.85;;
73571;SDS011;61854;48.510;-2.770;2023-10-13T09:08:06;18.52;;;4.85;;
73571;SDS011;61854;48.510;-2.770;2023-10-13T09:10:41;15.75;;;3.75;;
73571;SDS011;61854;48.510;-2.770;2023-10-13T09:13:10;18.98;;;4.75;;
73571;SDS011;61854;48.510;-2.770;2023-10-13T09:15:45;16.27;;;3.97;;
73571;SDS011;61854;48.510;-2.770;2023-10-13T09:18:26;14.45;;;4.18;;
73571;SDS011;61854;48.510;-2.770;2023-10-13T09:21:11;17.55;;;4.22;;
73571;SDS011;61854;48.510;-2.770;2023-10-13T09:23:56;17.20;;;4.25;;
73571;SDS011;61854;48.510;-2.770;2023-10-13T09:26:41;18.17;;;4.20;;
73571;SDS011;61854;48.510;-2.770;2023-10-13T09:29:17;20.70;;;4.47;;
73571;SDS011;61854;48.510;-2.770;2023-10-13T09:31:57;23.65;;;4.60;;
73571;SDS011;61854;48.510;-2.770;2023-10-13T09:34:28;18.98;;;4.38;;
73571;SDS011;61854;48.510;-2.770;2023-10-13T09:36:59;18.23;;;4.15;;
73571;SDS011;61854;48.510;-2.770;2023-10-13T09:39:28;18.65;;;4.63;;
73571;SDS011;61854;48.510;-2.770;2023-10-13T09:42:02;18.27;;;3.47;;
73571;SDS011;61854;48.510;-2.770;2023-10-13T09:44:28;17.63;;;4.25;;
73571;SDS011;61854;48.510;-2.770;2023-10-13T09:47:02;18.85;;;3.03;;
73571;SDS011;61854;48.510;-2.770;2023-10-13T09:49:43;11.27;;;3.42;;
73571;SDS011;61854;48.510;-2.770;2023-10-13T09:52:15;18.25;;;4.05;;
73571;SDS011;61854;48.510;-2.770;2023-10-13T09:54:53;23.67;;;4.47;;
73571;SDS011;61854;48.510;-2.770;2023-10-13T09:57:38;15.85;;;3.53;;
73571;SDS011;61854;48.510;-2.770;2023-10-13T10:00:11;16.65;;;4.07;;
73571;SDS011;61854;48.510;-2.770;2023-10-13T10:02:59;17.67;;;3.95;;
73571;SDS011;61854;48.510;-2.770;2023-10-13T10:05:39;14.10;;;3.00;;
73571;SDS011;61854;48.510;-2.770;2023-10-13T10:08:23;15.82;;;3.58;;
73571;SDS011;61854;48.510;-2.770;2023-10-13T10:14:09;13.60;;;2.75;;
73571;SDS011;61854;48.510;-2.770;2023-10-13T10:17:25;14.23;;;3.05;;
73571;SDS011;61854;48.510;-2.770;2023-10-13T10:22:13;16.27;;;2.58;;
73571;SDS011;61854;48.510;-2.770;2023-10-13T10:24:57;15.65;;;3.60;;
73571;SDS011;61854;48.510;-2.770;2023-10-13T10:27:24;12.10;;;3.05;;
73571;SDS011;61854;48.510;-2.770;2023-10-13T10:29:53;16.60;;;3.92;;
73571;SDS011;61854;48.510;-2.770;2023-10-13T10:32:19;13.07;;;3.75;;
73571;SDS011;61854;48.510;-2.770;2023-10-13T10:34:45;15.88;;;3.38;;
73571;SDS011;61854;48.510;-2.770;2023-10-13T10:37:10;15.40;;;4.03;;
73571;SDS011;61854;48.510;-2.770;2023-10-13T10:39:37;16.25;;;3.53;;
73571;SDS011;61854;48.510;-2.770;2023-10-13T10:42:14;21.33;;;4.45;;
73571;SDS011;61854;48.510;-2.770;2023-10-13T10:44:43;27.25;;;5.40;;
73571;SDS011;61854;48.510;-2.770;2023-10-13T10:49:57;16.38;;;3.60;;
73571;SDS011;61854;48.510;-2.770;2023-10-13T10:52:25;17.30;;;3.47;;
73571;SDS011;61854;48.510;-2.770;2023-10-13T10:54:59;14.20;;;3.13;;
73571;SDS011;61854;48.510;-2.770;2023-10-13T10:57:25;19.02;;;3.55;;
73571;SDS011;61854;48.510;-2.770;2023-10-13T10:59:54;13.68;;;3.42;;
73571;SDS011;61854;48.510;-2.770;2023-10-13T11:02:55;16.35;;;3.05;;
73571;SDS011;61854;48.510;-2.770;2023-10-13T11:05:22;19.08;;;2.65;;
73571;SDS011;61854;48.510;-2.770;2023-10-13T11:07:54;13.45;;;2.90;;
73571;SDS011;61854;48.510;-2.770;2023-10-13T11:10:19;16.02;;;2.92;;
73571;SDS011;61854;48.510;-2.770;2023-10-13T11:12:55;15.10;;;2.88;;
73571;SDS011;61854;48.510;-2.770;2023-10-13T11:15:22;14.45;;;3.17;;
73571;SDS011;61854;48.510;-2.770;2023-10-13T11:17:59;15.18;;;2.25;;
73571;SDS011;61854;48.510;-2.770;2023-10-13T11:20:25;13.25;;;2.92;;
73571;SDS011;61854;48.510;-2.770;2023-10-13T11:22:51;6.40;;;1.60;;
73571;SDS011;61854;48.510;-2.770;2023-10-13T11:25:27;13.43;;;2.65;;
73571;SDS011;61854;48.510;-2.770;2023-10-13T11:27:58;12.23;;;2.50;;
73571;SDS011;61854;48.510;-2.770;2023-10-13T11:30:34;11.93;;;2.40;;
73571;SDS011;61854;48.510;-2.770;2023-10-13T11:33:04;9.18;;;2.42;;
73571;SDS011;61854;48.510;-2.770;2023-10-13T11:35:34;10.77;;;2.13;;
73571;SDS011;61854;48.510;-2.770;2023-10-13T11:38:18;12.57;;;2.40;;
73571;SDS011;61854;48.510;-2.770;2023-10-13T11:41:02;9.50;;;2.20;;
73571;SDS011;61854;48.510;-2.770;2023-10-13T11:43:32;14.02;;;2.47;;
73571;SDS011;61854;48.510;-2.770;2023-10-13T11:46:09;13.10;;;2.28;;
73571;SDS011;61854;48.510;-2.770;2023-10-13T11:48:36;12.85;;;2.47;;
73571;SDS011;61854;48.510;-2.770;2023-10-13T11:51:05;10.68;;;2.33;;
73571;SDS011;61854;48.510;-2.770;2023-10-13T11:53:32;11.30;;;2.67;;
73571;SDS011;61854;48.510;-2.770;2023-10-13T11:56:01;14.40;;;3.28;;
73571;SDS011;61854;48.510;-2.770;2023-10-13T12:01:02;15.02;;;3.10;;
73571;SDS011;61854;48.510;-2.770;2023-10-13T12:03:43;12.27;;;2.38;;
73571;SDS011;61854;48.510;-2.770;2023-10-13T12:06:52;13.45;;;3.05;;
73571;SDS011;61854;48.510;-2.770;2023-10-13T12:09:36;14.73;;;2.92;;
73571;SDS011;61854;48.510;-2.770;2023-10-13T12:12:20;18.20;;;3.28;;
73571;SDS011;61854;48.510;-2.770;2023-10-13T12:14:46;13.20;;;2.10;;
73571;SDS011;61854;48.510;-2.770;2023-10-13T12:17:18;14.98;;;3.13;;
73571;SDS011;61854;48.510;-2.770;2023-10-13T12:19:52;9.15;;;1.70;;
73571;SDS011;61854;48.510;-2.770;2023-10-13T12:22:19;10.27;;;1.90;;
73571;SDS011;61854;48.510;-2.770;2023-10-13T12:25:00;14.27;;;1.90;;
73571;SDS011;61854;48.510;-2.770;2023-10-13T12:27:30;9.43;;;1.92;;
73571;SDS011;61854;48.510;-2.770;2023-10-13T12:30:14;11.25;;;2.20;;
73571;SDS011;61854;48.510;-2.770;2023-10-13T12:32:47;11.68;;;2.10;;
73571;SDS011;61854;48.510;-2.770;2023-10-13T12:35:23;15.23;;;2.40;;
73571;SDS011;61854;48.510;-2.770;2023-10-13T12:37:55;11.18;;;2.30;;
73571;SDS011;61854;48.510;-2.770;2023-10-13T12:40:30;8.07;;;1.83;;
73571;SDS011;61854;48.510;-2.770;2023-10-13T12:43:14;13.80;;;2.70;;
73571;SDS011;61854;48.510;-2.770;2023-10-13T12:45:58;9.60;;;1.77;;
73571;SDS011;61854;48.510;-2.770;2023-10-13T12:48:42;11.60;;;1.90;;
73571;SDS011;61854;48.510;-2.770;2023-10-13T12:51:24;6.05;;;1.33;;
73571;SDS011;61854;48.510;-2.770;2023-10-13T12:53:56;12.95;;;2.35;;
73571;SDS011;61854;48.510;-2.770;2023-10-13T12:56:29;7.85;;;2.00;;
73571;SDS011;61854;48.510;-2.770;2023-10-13T12:58:55;8.68;;;1.92;;
73571;SDS011;61854;48.510;-2.770;2023-10-13T13:01:22;13.57;;;2.25;;
73571;SDS011;61854;48.510;-2.770;2023-10-13T13:03:50;9.80;;;1.88;;
73571;SDS011;61854;48.510;-2.770;2023-10-13T13:06:21;15.00;;;2.40;;
73571;SDS011;61854;48.510;-2.770;2023-10-13T13:08:55;13.55;;;2.65;;
73571;SDS011;61854;48.510;-2.770;2023-10-13T13:11:22;10.55;;;2.33;;
73571;SDS011;61854;48.510;-2.770;2023-10-13T13:13:48;16.13;;;2.60;;
73571;SDS011;61854;48.510;-2.770;2023-10-13T13:16:17;14.98;;;2.03;;
73571;SDS011;61854;48.510;-2.770;2023-10-13T13:18:44;14.07;;;2.40;;
73571;SDS011;61854;48.510;-2.770;2023-10-13T13:21:10;14.38;;;2.42;;
73571;SDS011;61854;48.510;-2.770;2023-10-13T13:23:38;11.30;;;1.88;;
73571;SDS011;61854;48.510;-2.770;2023-10-13T13:26:05;17.08;;;2.22;;
73571;SDS011;61854;48.510;-2.770;2023-10-13T13:28:41;10.57;;;1.88;;
73571;SDS011;61854;48.510;-2.770;2023-10-13T13:31:07;16.95;;;2.92;;
73571;SDS011;61854;48.510;-2.770;2023-10-13T13:33:34;16.25;;;2.97;;
73571;SDS011;61854;48.510;-2.770;2023-10-13T13:36:06;11.88;;;2.42;;
73571;SDS011;61854;48.510;-2.770;2023-10-13T13:38:32;12.25;;;2.47;;
73571;SDS011;61854;48.510;-2.770;2023-10-13T13:40:59;14.68;;;2.08;;
73571;SDS011;61854;48.510;-2.770;2023-10-13T13:43:27;15.82;;;2.65;;
73571;SDS011;61854;48.510;-2.770;2023-10-13T13:46:11;12.68;;;2.10;;
73571;SDS011;61854;48.510;-2.770;2023-10-13T13:48:37;15.20;;;2.42;;
73571;SDS011;61854;48.510;-2.770;2023-10-13T13:51:06;9.18;;;1.60;;
73571;SDS011;61854;48.510;-2.770;2023-10-13T13:53:43;19.13;;;3.08;;
73571;SDS011;61854;48.510;-2.770;2023-10-13T13:56:13;10.00;;;2.58;;
73571;SDS011;61854;48.510;-2.770;2023-10-13T13:58:44;13.50;;;2.60;;
73571;SDS011;61854;48.510;-2.770;2023-10-13T14:01:15;13.93;;;2.75;;
73571;SDS011;61854;48.510;-2.770;2023-10-13T14:03:44;15.82;;;3.00;;
73571;SDS011;61854;48.510;-2.770;2023-10-13T14:06:14;13.55;;;2.70;;
73571;SDS011;61854;48.510;-2.770;2023-10-13T14:08:55;14.27;;;2.33;;
73571;SDS011;61854;48.510;-2.770;2023-10-13T14:11:26;15.40;;;2.50;;
73571;SDS011;61854;48.510;-2.770;2023-10-13T14:14:13;15.35;;;2.58;;
73571;SDS011;61854;48.510;-2.770;2023-10-13T14:16:53;11.35;;;2.28;;
73571;SDS011;61854;48.510;-2.770;2023-10-13T14:19:27;18.52;;;2.80;;
73571;SDS011;61854;48.510;-2.770;2023-10-13T14:21:56;7.88;;;1.95;;
73571;SDS011;61854;48.510;-2.770;2023-10-13T14:24:22;17.58;;;2.83;;
73571;SDS011;61854;48.510;-2.770;2023-10-13T14:26:58;16.15;;;2.55;;
73571;SDS011;61854;48.510;-2.770;2023-10-13T14:29:40;11.85;;;2.15;;
73571;SDS011;61854;48.510;-2.770;2023-10-13T14:32:11;18.05;;;2.60;;
73571;SDS011;61854;48.510;-2.770;2023-10-13T14:34:43;10.48;;;2.17;;
73571;SDS011;61854;48.510;-2.770;2023-10-13T14:37:09;16.13;;;2.63;;
73571;SDS011;61854;48.510;-2.770;2023-10-13T14:39:41;18.08;;;2.72;;
73571;SDS011;61854;48.510;-2.770;2023-10-13T14:42:06;9.50;;;2.05;;
73571;SDS011;61854;48.510;-2.770;2023-10-13T14:44:33;17.38;;;2.80;;
73571;SDS011;61854;48.510;-2.770;2023-10-13T14:46:59;17.00;;;2.67;;
73571;SDS011;61854;48.510;-2.770;2023-10-13T14:49:30;13.18;;;2.72;;
73571;SDS011;61854;48.510;-2.770;2023-10-13T14:51:56;10.90;;;2.00;;
73571;SDS011;61854;48.510;-2.770;2023-10-13T14:54:24;11.57;;;2.67;;
73571;SDS011;61854;48.510;-2.770;2023-10-13T14:56:59;16.00;;;2.80;;
73571;SDS011;61854;48.510;-2.770;2023-10-13T14:59:26;17.00;;;2.10;;
73571;SDS011;61854;48.510;-2.770;2023-10-13T15:01:53;14.27;;;2.05;;
73571;SDS011;61854;48.510;-2.770;2023-10-13T15:04:18;12.65;;;2.17;;
73571;SDS011;61854;48.510;-2.770;2023-10-13T15:06:49;15.48;;;2.67;;
73571;SDS011;61854;48.510;-2.770;2023-10-13T15:09:15;11.48;;;1.98;;
73571;SDS011;61854;48.510;-2.770;2023-10-13T15:11:48;8.77;;;1.92;;
73571;SDS011;61854;48.510;-2.770;2023-10-13T15:14:17;10.63;;;2.20;;
73571;SDS011;61854;48.510;-2.770;2023-10-13T15:16:45;12.37;;;2.13;;